Greenbush, Minnesota
Current Conditions -  °F | °C
As of 8:34 AM on Tuesday 21 Oct 2014 (Local Time) from KROX Reporting Station
Clear Clear  
Wind Chill: 34°   Ceiling: Unl
Heat Index: 39°   Visibility: 10mi
Dew Point: 34°   Wind: 7mph
Humidity: 81%   Direction: 130°SE
Pressure: 30.08"   Gusts: NA
Location:  48.7°N, 96.18°W
Report Text: KROX 211334Z AUTO 13006KT 10SM CLR 04/01 A3008 RMK AO2
Loading
Personal Weather Stations






























Interactive Weather Map
Tropical Storm Tracking
New forecast layout! Learn more

10-Day Weather Forecast

Advertisements
Track Severe Weather on mobile